sensor_id;sensor_type;location;lat;lon;timestamp;P1;durP1;ratioP1;P2;durP2;ratioP2
33579;SDS011;19909;43.644;-79.438;2023-07-13T00:00:46;2.92;;;2.20;;
33579;SDS011;19909;43.644;-79.438;2023-07-13T00:03:12;3.55;;;2.60;;
33579;SDS011;19909;43.644;-79.438;2023-07-13T00:05:39;4.88;;;3.03;;
33579;SDS011;19909;43.644;-79.438;2023-07-13T00:08:06;4.05;;;2.85;;
33579;SDS011;19909;43.644;-79.438;2023-07-13T00:10:33;2.60;;;2.30;;
33579;SDS011;19909;43.644;-79.438;2023-07-13T00:13:03;2.75;;;2.42;;
33579;SDS011;19909;43.644;-79.438;2023-07-13T00:15:30;4.55;;;2.40;;
33579;SDS011;19909;43.644;-79.438;2023-07-13T00:17:57;2.67;;;2.17;;
33579;SDS011;19909;43.644;-79.438;2023-07-13T00:20:24;3.25;;;2.88;;
33579;SDS011;19909;43.644;-79.438;2023-07-13T00:22:51;5.20;;;2.78;;
33579;SDS011;19909;43.644;-79.438;2023-07-13T00:25:19;4.40;;;2.70;;
33579;SDS011;19909;43.644;-79.438;2023-07-13T00:27:47;5.45;;;2.53;;
33579;SDS011;19909;43.644;-79.438;2023-07-13T00:30:16;3.63;;;2.35;;
33579;SDS011;19909;43.644;-79.438;2023-07-13T00:32:43;3.28;;;2.33;;
33579;SDS011;19909;43.644;-79.438;2023-07-13T00:35:09;2.45;;;2.00;;
33579;SDS011;19909;43.644;-79.438;2023-07-13T00:37:36;2.53;;;2.10;;
33579;SDS011;19909;43.644;-79.438;2023-07-13T00:40:05;2.55;;;1.90;;
33579;SDS011;19909;43.644;-79.438;2023-07-13T00:42:33;3.08;;;1.80;;
33579;SDS011;19909;43.644;-79.438;2023-07-13T00:47:48;1.70;;;1.40;;
33579;SDS011;19909;43.644;-79.438;2023-07-13T00:50:15;2.05;;;1.60;;
33579;SDS011;19909;43.644;-79.438;2023-07-13T00:52:44;1.58;;;1.48;;
33579;SDS011;19909;43.644;-79.438;2023-07-13T00:55:13;2.00;;;1.50;;
33579;SDS011;19909;43.644;-79.438;2023-07-13T00:57:40;1.42;;;1.27;;
33579;SDS011;19909;43.644;-79.438;2023-07-13T01:00:07;1.20;;;1.10;;
33579;SDS011;19909;43.644;-79.438;2023-07-13T01:02:35;1.52;;;1.42;;
33579;SDS011;19909;43.644;-79.438;2023-07-13T01:05:13;1.30;;;1.20;;
33579;SDS011;19909;43.644;-79.438;2023-07-13T01:07:40;1.23;;;1.05;;
33579;SDS011;19909;43.644;-79.438;2023-07-13T01:10:09;1.27;;;1.17;;
33579;SDS011;19909;43.644;-79.438;2023-07-13T01:12:36;1.50;;;1.40;;
33579;SDS011;19909;43.644;-79.438;2023-07-13T01:15:03;1.30;;;1.10;;
33579;SDS011;19909;43.644;-79.438;2023-07-13T01:17:31;1.55;;;1.00;;
33579;SDS011;19909;43.644;-79.438;2023-07-13T01:19:59;1.33;;;1.10;;
33579;SDS011;19909;43.644;-79.438;2023-07-13T01:22:26;1.35;;;1.25;;
33579;SDS011;19909;43.644;-79.438;2023-07-13T01:24:53;1.42;;;1.25;;
33579;SDS011;19909;43.644;-79.438;2023-07-13T01:27:23;4.95;;;1.38;;
33579;SDS011;19909;43.644;-79.438;2023-07-13T01:29:51;1.95;;;1.10;;
33579;SDS011;19909;43.644;-79.438;2023-07-13T01:32:19;1.45;;;1.02;;
33579;SDS011;19909;43.644;-79.438;2023-07-13T01:34:52;1.45;;;1.08;;
33579;SDS011;19909;43.644;-79.438;2023-07-13T01:37:20;1.45;;;1.10;;
33579;SDS011;19909;43.644;-79.438;2023-07-13T01:39:47;1.25;;;1.15;;
33579;SDS011;19909;43.644;-79.438;2023-07-13T01:42:13;3.97;;;0.88;;
33579;SDS011;19909;43.644;-79.438;2023-07-13T01:44:40;2.22;;;1.77;;
33579;SDS011;19909;43.644;-79.438;2023-07-13T01:47:06;1.50;;;1.35;;
33579;SDS011;19909;43.644;-79.438;2023-07-13T01:49:33;1.50;;;1.17;;
33579;SDS011;19909;43.644;-79.438;2023-07-13T01:51:59;2.38;;;1.83;;
33579;SDS011;19909;43.644;-79.438;2023-07-13T01:54:25;1.85;;;1.70;;
33579;SDS011;19909;43.644;-79.438;2023-07-13T01:56:52;2.03;;;1.67;;
33579;SDS011;19909;43.644;-79.438;2023-07-13T01:59:18;2.17;;;1.83;;
33579;SDS011;19909;43.644;-79.438;2023-07-13T02:01:44;3.35;;;2.10;;
33579;SDS011;19909;43.644;-79.438;2023-07-13T02:04:10;4.88;;;1.80;;
33579;SDS011;19909;43.644;-79.438;2023-07-13T02:06:36;2.10;;;1.65;;
33579;SDS011;19909;43.644;-79.438;2023-07-13T02:09:02;2.03;;;1.73;;
33579;SDS011;19909;43.644;-79.438;2023-07-13T02:11:29;3.60;;;2.45;;
33579;SDS011;19909;43.644;-79.438;2023-07-13T02:14:00;2.10;;;1.70;;
33579;SDS011;19909;43.644;-79.438;2023-07-13T02:16:28;4.07;;;1.65;;
33579;SDS011;19909;43.644;-79.438;2023-07-13T02:18:55;2.88;;;1.70;;
33579;SDS011;19909;43.644;-79.438;2023-07-13T02:21:21;1.63;;;1.42;;
33579;SDS011;19909;43.644;-79.438;2023-07-13T02:23:48;1.88;;;1.33;;
33579;SDS011;19909;43.644;-79.438;2023-07-13T02:26:15;3.45;;;1.58;;
33579;SDS011;19909;43.644;-79.438;2023-07-13T02:28:41;2.53;;;1.60;;
33579;SDS011;19909;43.644;-79.438;2023-07-13T02:31:08;1.85;;;1.40;;
33579;SDS011;19909;43.644;-79.438;2023-07-13T02:33:37;2.70;;;2.13;;
33579;SDS011;19909;43.644;-79.438;2023-07-13T02:36:03;2.08;;;1.25;;
33579;SDS011;19909;43.644;-79.438;2023-07-13T02:38:31;3.55;;;1.50;;
33579;SDS011;19909;43.644;-79.438;2023-07-13T02:40:59;2.42;;;1.58;;
33579;SDS011;19909;43.644;-79.438;2023-07-13T02:43:26;1.35;;;1.25;;
33579;SDS011;19909;43.644;-79.438;2023-07-13T02:45:52;2.20;;;1.58;;
33579;SDS011;19909;43.644;-79.438;2023-07-13T02:48:19;1.50;;;1.40;;
33579;SDS011;19909;43.644;-79.438;2023-07-13T02:50:45;1.67;;;1.50;;
33579;SDS011;19909;43.644;-79.438;2023-07-13T02:53:11;1.38;;;1.27;;
33579;SDS011;19909;43.644;-79.438;2023-07-13T02:55:37;2.50;;;1.33;;
33579;SDS011;19909;43.644;-79.438;2023-07-13T02:58:06;1.45;;;1.35;;
33579;SDS011;19909;43.644;-79.438;2023-07-13T03:00:32;3.35;;;1.55;;
33579;SDS011;19909;43.644;-79.438;2023-07-13T03:02:59;2.17;;;1.23;;
33579;SDS011;19909;43.644;-79.438;2023-07-13T03:05:25;2.05;;;1.20;;
33579;SDS011;19909;43.644;-79.438;2023-07-13T03:07:51;2.72;;;1.77;;
33579;SDS011;19909;43.644;-79.438;2023-07-13T03:10:17;2.42;;;1.50;;
33579;SDS011;19909;43.644;-79.438;2023-07-13T03:12:43;1.67;;;1.52;;
33579;SDS011;19909;43.644;-79.438;2023-07-13T03:15:09;1.52;;;1.42;;
33579;SDS011;19909;43.644;-79.438;2023-07-13T03:17:36;3.47;;;1.35;;
33579;SDS011;19909;43.644;-79.438;2023-07-13T03:20:02;3.58;;;1.90;;
33579;SDS011;19909;43.644;-79.438;2023-07-13T03:22:28;2.20;;;1.90;;
33579;SDS011;19909;43.644;-79.438;2023-07-13T03:24:54;3.08;;;1.80;;
33579;SDS011;19909;43.644;-79.438;2023-07-13T03:27:21;2.17;;;1.85;;
33579;SDS011;19909;43.644;-79.438;2023-07-13T03:29:47;2.03;;;1.73;;
33579;SDS011;19909;43.644;-79.438;2023-07-13T03:32:13;2.63;;;1.55;;
33579;SDS011;19909;43.644;-79.438;2023-07-13T03:34:39;5.03;;;2.00;;
33579;SDS011;19909;43.644;-79.438;2023-07-13T03:37:05;1.98;;;1.33;;
33579;SDS011;19909;43.644;-79.438;2023-07-13T03:39:31;2.80;;;1.75;;
33579;SDS011;19909;43.644;-79.438;2023-07-13T03:41:57;1.70;;;1.50;;
33579;SDS011;19909;43.644;-79.438;2023-07-13T03:44:23;2.70;;;1.70;;
33579;SDS011;19909;43.644;-79.438;2023-07-13T03:46:50;2.38;;;1.75;;
33579;SDS011;19909;43.644;-79.438;2023-07-13T03:49:16;2.15;;;1.67;;
33579;SDS011;19909;43.644;-79.438;2023-07-13T03:51:42;2.97;;;1.77;;
33579;SDS011;19909;43.644;-79.438;2023-07-13T03:54:08;2.85;;;1.90;;
33579;SDS011;19909;43.644;-79.438;2023-07-13T03:56:34;3.05;;;2.17;;
33579;SDS011;19909;43.644;-79.438;2023-07-13T03:59:00;3.80;;;2.17;;
33579;SDS011;19909;43.644;-79.438;2023-07-13T04:01:27;2.47;;;1.60;;
33579;SDS011;19909;43.644;-79.438;2023-07-13T04:03:53;3.72;;;1.98;;
33579;SDS011;19909;43.644;-79.438;2023-07-13T04:06:20;3.33;;;1.80;;
33579;SDS011;19909;43.644;-79.438;2023-07-13T04:08:50;2.05;;;1.85;;
33579;SDS011;19909;43.644;-79.438;2023-07-13T04:11:19;2.60;;;1.90;;
33579;SDS011;19909;43.644;-79.438;2023-07-13T04:13:46;4.90;;;2.28;;
33579;SDS011;19909;43.644;-79.438;2023-07-13T04:16:14;3.45;;;1.58;;
33579;SDS011;19909;43.644;-79.438;2023-07-13T04:18:41;4.35;;;2.03;;
33579;SDS011;19909;43.644;-79.438;2023-07-13T04:21:07;2.67;;;2.05;;
33579;SDS011;19909;43.644;-79.438;2023-07-13T04:23:37;4.20;;;1.77;;
33579;SDS011;19909;43.644;-79.438;2023-07-13T04:26:03;3.15;;;2.03;;
33579;SDS011;19909;43.644;-79.438;2023-07-13T04:28:30;4.15;;;2.03;;
33579;SDS011;19909;43.644;-79.438;2023-07-13T04:30:56;3.15;;;1.92;;
33579;SDS011;19909;43.644;-79.438;2023-07-13T04:33:22;2.75;;;1.60;;
33579;SDS011;19909;43.644;-79.438;2023-07-13T04:35:49;2.35;;;1.83;;
33579;SDS011;19909;43.644;-79.438;2023-07-13T04:38:22;2.50;;;1.65;;
33579;SDS011;19909;43.644;-79.438;2023-07-13T04:41:00;1.85;;;1.65;;
33579;SDS011;19909;43.644;-79.438;2023-07-13T04:43:27;2.28;;;1.73;;
33579;SDS011;19909;43.644;-79.438;2023-07-13T04:45:54;2.13;;;1.60;;
33579;SDS011;19909;43.644;-79.438;2023-07-13T04:48:21;2.58;;;1.80;;
33579;SDS011;19909;43.644;-79.438;2023-07-13T04:50:53;1.80;;;1.40;;
33579;SDS011;19909;43.644;-79.438;2023-07-13T04:53:23;3.95;;;1.63;;
33579;SDS011;19909;43.644;-79.438;2023-07-13T04:55:50;2.60;;;1.63;;
33579;SDS011;19909;43.644;-79.438;2023-07-13T04:58:16;2.83;;;1.80;;
33579;SDS011;19909;43.644;-79.438;2023-07-13T05:00:43;3.47;;;1.38;;
33579;SDS011;19909;43.644;-79.438;2023-07-13T05:03:09;2.70;;;1.65;;
33579;SDS011;19909;43.644;-79.438;2023-07-13T05:05:35;2.97;;;1.77;;
33579;SDS011;19909;43.644;-79.438;2023-07-13T05:08:01;4.43;;;1.73;;
33579;SDS011;19909;43.644;-79.438;2023-07-13T05:10:27;3.90;;;1.67;;
33579;SDS011;19909;43.644;-79.438;2023-07-13T05:12:53;2.47;;;1.50;;
33579;SDS011;19909;43.644;-79.438;2023-07-13T05:15:22;2.72;;;1.85;;
33579;SDS011;19909;43.644;-79.438;2023-07-13T05:17:49;4.32;;;1.45;;
33579;SDS011;19909;43.644;-79.438;2023-07-13T05:20:16;6.45;;;1.83;;
33579;SDS011;19909;43.644;-79.438;2023-07-13T05:22:43;2.13;;;1.52;;
33579;SDS011;19909;43.644;-79.438;2023-07-13T05:25:12;3.25;;;1.75;;
33579;SDS011;19909;43.644;-79.438;2023-07-13T05:27:39;3.63;;;1.80;;
33579;SDS011;19909;43.644;-79.438;2023-07-13T05:30:05;6.40;;;2.20;;
33579;SDS011;19909;43.644;-79.438;2023-07-13T05:32:32;6.13;;;2.13;;
33579;SDS011;19909;43.644;-79.438;2023-07-13T05:34:58;5.93;;;2.30;;
33579;SDS011;19909;43.644;-79.438;2023-07-13T05:37:24;5.40;;;2.65;;
33579;SDS011;19909;43.644;-79.438;2023-07-13T05:39:51;7.43;;;2.20;;
33579;SDS011;19909;43.644;-79.438;2023-07-13T05:42:17;8.05;;;2.25;;
33579;SDS011;19909;43.644;-79.438;2023-07-13T05:44:43;6.40;;;2.40;;
33579;SDS011;19909;43.644;-79.438;2023-07-13T05:47:09;7.25;;;2.30;;
33579;SDS011;19909;43.644;-79.438;2023-07-13T05:49:36;11.02;;;2.70;;
33579;SDS011;19909;43.644;-79.438;2023-07-13T05:52:02;6.35;;;2.70;;
33579;SDS011;19909;43.644;-79.438;2023-07-13T05:54:28;6.68;;;2.67;;
33579;SDS011;19909;43.644;-79.438;2023-07-13T05:56:55;10.60;;;3.10;;
33579;SDS011;19909;43.644;-79.438;2023-07-13T05:59:21;7.70;;;2.95;;
33579;SDS011;19909;43.644;-79.438;2023-07-13T06:01:47;10.25;;;3.50;;
33579;SDS011;19909;43.644;-79.438;2023-07-13T06:04:14;9.88;;;3.63;;
33579;SDS011;19909;43.644;-79.438;2023-07-13T06:06:40;14.48;;;4.13;;
33579;SDS011;19909;43.644;-79.438;2023-07-13T06:09:06;8.57;;;3.20;;
33579;SDS011;19909;43.644;-79.438;2023-07-13T06:11:32;6.85;;;3.65;;
33579;SDS011;19909;43.644;-79.438;2023-07-13T06:14:00;7.22;;;3.10;;
33579;SDS011;19909;43.644;-79.438;2023-07-13T06:16:26;8.75;;;3.03;;
33579;SDS011;19909;43.644;-79.438;2023-07-13T06:18:52;7.60;;;3.13;;
33579;SDS011;19909;43.644;-79.438;2023-07-13T06:21:19;9.18;;;3.67;;
33579;SDS011;19909;43.644;-79.438;2023-07-13T06:23:48;16.13;;;4.85;;
33579;SDS011;19909;43.644;-79.438;2023-07-13T06:26:16;9.68;;;3.92;;
33579;SDS011;19909;43.644;-79.438;2023-07-13T06:28:43;6.97;;;2.90;;
33579;SDS011;19909;43.644;-79.438;2023-07-13T06:31:10;7.10;;;3.30;;
33579;SDS011;19909;43.644;-79.438;2023-07-13T06:33:38;12.50;;;3.35;;
33579;SDS011;19909;43.644;-79.438;2023-07-13T06:36:04;10.73;;;4.05;;
33579;SDS011;19909;43.644;-79.438;2023-07-13T06:38:33;13.77;;;4.80;;
33579;SDS011;19909;43.644;-79.438;2023-07-13T06:40:59;12.57;;;5.07;;
33579;SDS011;19909;43.644;-79.438;2023-07-13T06:43:25;11.05;;;4.78;;
33579;SDS011;19909;43.644;-79.438;2023-07-13T06:45:53;19.65;;;6.70;;
33579;SDS011;19909;43.644;-79.438;2023-07-13T06:48:20;14.43;;;6.13;;
33579;SDS011;19909;43.644;-79.438;2023-07-13T06:50:47;13.80;;;6.25;;
33579;SDS011;19909;43.644;-79.438;2023-07-13T06:53:15;19.98;;;6.45;;
33579;SDS011;19909;43.644;-79.438;2023-07-13T06:55:43;17.83;;;5.95;;
33579;SDS011;19909;43.644;-79.438;2023-07-13T06:58:10;15.13;;;5.68;;
33579;SDS011;19909;43.644;-79.438;2023-07-13T07:00:36;19.23;;;6.40;;
33579;SDS011;19909;43.644;-79.438;2023-07-13T07:03:05;16.00;;;6.55;;
33579;SDS011;19909;43.644;-79.438;2023-07-13T07:05:31;12.23;;;5.38;;
33579;SDS011;19909;43.644;-79.438;2023-07-13T07:07:58;24.85;;;6.45;;
33579;SDS011;19909;43.644;-79.438;2023-07-13T07:10:24;25.35;;;7.75;;
33579;SDS011;19909;43.644;-79.438;2023-07-13T07:12:51;20.27;;;7.40;;
33579;SDS011;19909;43.644;-79.438;2023-07-13T07:15:18;21.15;;;6.82;;
33579;SDS011;19909;43.644;-79.438;2023-07-13T07:17:44;19.02;;;7.85;;
33579;SDS011;19909;43.644;-79.438;2023-07-13T07:20:11;15.77;;;7.15;;
33579;SDS011;19909;43.644;-79.438;2023-07-13T07:22:37;17.38;;;7.32;;
33579;SDS011;19909;43.644;-79.438;2023-07-13T07:25:03;15.75;;;6.55;;
33579;SDS011;19909;43.644;-79.438;2023-07-13T07:27:30;13.63;;;6.00;;
33579;SDS011;19909;43.644;-79.438;2023-07-13T07:29:56;13.52;;;5.80;;
33579;SDS011;19909;43.644;-79.438;2023-07-13T07:32:25;10.05;;;5.78;;
33579;SDS011;19909;43.644;-79.438;2023-07-13T07:34:51;17.27;;;5.80;;
33579;SDS011;19909;43.644;-79.438;2023-07-13T07:37:17;18.15;;;6.05;;
33579;SDS011;19909;43.644;-79.438;2023-07-13T07:39:43;11.05;;;5.88;;
33579;SDS011;19909;43.644;-79.438;2023-07-13T07:42:10;10.90;;;5.95;;
33579;SDS011;19909;43.644;-79.438;2023-07-13T07:44:37;15.98;;;5.82;;
33579;SDS011;19909;43.644;-79.438;2023-07-13T07:47:05;12.15;;;6.05;;
33579;SDS011;19909;43.644;-79.438;2023-07-13T07:49:32;8.23;;;5.80;;
33579;SDS011;19909;43.644;-79.438;2023-07-13T07:51:58;12.93;;;5.45;;
33579;SDS011;19909;43.644;-79.438;2023-07-13T07:54:25;14.95;;;6.20;;
33579;SDS011;19909;43.644;-79.438;2023-07-13T07:56:51;18.42;;;6.20;;
33579;SDS011;19909;43.644;-79.438;2023-07-13T07:59:17;12.88;;;6.20;;
33579;SDS011;19909;43.644;-79.438;2023-07-13T08:01:44;11.13;;;5.90;;
33579;SDS011;19909;43.644;-79.438;2023-07-13T08:04:13;17.85;;;6.45;;
33579;SDS011;19909;43.644;-79.438;2023-07-13T08:06:39;12.13;;;5.97;;
33579;SDS011;19909;43.644;-79.438;2023-07-13T08:09:05;15.38;;;6.15;;
33579;SDS011;19909;43.644;-79.438;2023-07-13T08:11:31;16.48;;;5.95;;
33579;SDS011;19909;43.644;-79.438;2023-07-13T08:13:57;13.50;;;6.10;;
33579;SDS011;19909;43.644;-79.438;2023-07-13T08:16:23;13.32;;;5.38;;
33579;SDS011;19909;43.644;-79.438;2023-07-13T08:18:51;14.60;;;5.25;;
33579;SDS011;19909;43.644;-79.438;2023-07-13T08:21:17;11.30;;;6.18;;
33579;SDS011;19909;43.644;-79.438;2023-07-13T08:23:45;9.50;;;5.40;;
33579;SDS011;19909;43.644;-79.438;2023-07-13T08:26:11;8.85;;;5.07;;
33579;SDS011;19909;43.644;-79.438;2023-07-13T08:28:37;11.10;;;5.53;;
33579;SDS011;19909;43.644;-79.438;2023-07-13T08:31:04;9.18;;;6.00;;
33579;SDS011;19909;43.644;-79.438;2023-07-13T08:33:34;14.68;;;5.70;;
33579;SDS011;19909;43.644;-79.438;2023-07-13T08:36:01;15.77;;;6.60;;
33579;SDS011;19909;43.644;-79.438;2023-07-13T08:38:27;14.30;;;5.90;;
33579;SDS011;19909;43.644;-79.438;2023-07-13T08:40:55;12.18;;;5.72;;
33579;SDS011;19909;43.644;-79.438;2023-07-13T08:43:24;15.48;;;5.53;;
33579;SDS011;19909;43.644;-79.438;2023-07-13T08:46:15;13.45;;;5.55;;
33579;SDS011;19909;43.644;-79.438;2023-07-13T08:48:50;11.48;;;5.30;;
33579;SDS011;19909;43.644;-79.438;2023-07-13T08:51:39;14.73;;;5.32;;
33579;SDS011;19909;43.644;-79.438;2023-07-13T08:54:16;12.38;;;5.35;;
33579;SDS011;19909;43.644;-79.438;2023-07-13T08:56:44;7.38;;;4.93;;
33579;SDS011;19909;43.644;-79.438;2023-07-13T08:59:16;11.32;;;5.93;;
33579;SDS011;19909;43.644;-79.438;2023-07-13T09:04:21;9.95;;;5.50;;
33579;SDS011;19909;43.644;-79.438;2023-07-13T09:17:20;11.10;;;5.15;;
33579;SDS011;19909;43.644;-79.438;2023-07-13T09:20:48;9.82;;;5.50;;
33579;SDS011;19909;43.644;-79.438;2023-07-13T09:22:52;10.68;;;5.05;;
33579;SDS011;19909;43.644;-79.438;2023-07-13T09:25:27;5.88;;;4.70;;
33579;SDS011;19909;43.644;-79.438;2023-07-13T09:28:03;11.88;;;5.20;;
33579;SDS011;19909;43.644;-79.438;2023-07-13T09:33:09;6.28;;;5.03;;
33579;SDS011;19909;43.644;-79.438;2023-07-13T09:35:36;8.43;;;5.07;;
33579;SDS011;19909;43.644;-79.438;2023-07-13T09:38:12;10.38;;;4.93;;
33579;SDS011;19909;43.644;-79.438;2023-07-13T09:40:43;7.80;;;5.32;;
33579;SDS011;19909;43.644;-79.438;2023-07-13T09:43:24;9.88;;;5.22;;
33579;SDS011;19909;43.644;-79.438;2023-07-13T09:45:50;12.25;;;5.40;;
33579;SDS011;19909;43.644;-79.438;2023-07-13T09:48:17;10.07;;;4.88;;
33579;SDS011;19909;43.644;-79.438;2023-07-13T09:50:44;7.82;;;4.38;;
33579;SDS011;19909;43.644;-79.438;2023-07-13T09:53:14;5.35;;;3.78;;
33579;SDS011;19909;43.644;-79.438;2023-07-13T09:55:43;6.82;;;4.30;;
33579;SDS011;19909;43.644;-79.438;2023-07-13T10:00:42;10.35;;;5.30;;
33579;SDS011;19909;43.644;-79.438;2023-07-13T10:03:23;13.73;;;5.00;;
33579;SDS011;19909;43.644;-79.438;2023-07-13T10:08:27;10.82;;;5.22;;
33579;SDS011;19909;43.644;-79.438;2023-07-13T10:11:29;10.30;;;5.40;;
33579;SDS011;19909;43.644;-79.438;2023-07-13T10:14:00;8.43;;;4.88;;
33579;SDS011;19909;43.644;-79.438;2023-07-13T10:16:28;6.25;;;4.25;;
33579;SDS011;19909;43.644;-79.438;2023-07-13T10:19:04;10.65;;;3.97;;
33579;SDS011;19909;43.644;-79.438;2023-07-13T10:21:39;5.63;;;3.45;;
33579;SDS011;19909;43.644;-79.438;2023-07-13T10:24:27;6.43;;;3.80;;
33579;SDS011;19909;43.644;-79.438;2023-07-13T10:29:34;4.35;;;2.78;;
33579;SDS011;19909;43.644;-79.438;2023-07-13T10:32:09;3.83;;;2.50;;
33579;SDS011;19909;43.644;-79.438;2023-07-13T10:34:37;8.02;;;3.13;;
33579;SDS011;19909;43.644;-79.438;2023-07-13T10:37:06;8.43;;;2.70;;
33579;SDS011;19909;43.644;-79.438;2023-07-13T10:39:41;6.13;;;2.72;;
33579;SDS011;19909;43.644;-79.438;2023-07-13T10:42:08;8.65;;;3.22;;
33579;SDS011;19909;43.644;-79.438;2023-07-13T10:44:43;7.15;;;3.53;;
33579;SDS011;19909;43.644;-79.438;2023-07-13T10:47:13;9.23;;;3.60;;
33579;SDS011;19909;43.644;-79.438;2023-07-13T10:49:43;8.32;;;3.72;;
33579;SDS011;19909;43.644;-79.438;2023-07-13T10:55:36;10.60;;;4.07;;
33579;SDS011;19909;43.644;-79.438;2023-07-13T10:58:20;6.78;;;5.03;;
33579;SDS011;19909;43.644;-79.438;2023-07-13T11:03:25;9.73;;;5.82;;
33579;SDS011;19909;43.644;-79.438;2023-07-13T11:06:08;8.60;;;5.90;;
33579;SDS011;19909;43.644;-79.438;2023-07-13T11:08:36;7.20;;;5.88;;
33579;SDS011;19909;43.644;-79.438;2023-07-13T11:14:01;6.20;;;4.00;;
33579;SDS011;19909;43.644;-79.438;2023-07-13T11:21:32;7.85;;;4.47;;
33579;SDS011;19909;43.644;-79.438;2023-07-13T11:24:03;7.93;;;5.25;;
33579;SDS011;19909;43.644;-79.438;2023-07-13T11:26:44;5.00;;;4.13;;
33579;SDS011;19909;43.644;-79.438;2023-07-13T11:31:51;5.32;;;4.82;;
33579;SDS011;19909;43.644;-79.438;2023-07-13T11:34:21;6.70;;;5.22;;
33579;SDS011;19909;43.644;-79.438;2023-07-13T11:36:57;5.13;;;4.18;;
33579;SDS011;19909;43.644;-79.438;2023-07-13T11:39:29;9.57;;;4.68;;
33579;SDS011;19909;43.644;-79.438;2023-07-13T11:41:59;5.65;;;4.75;;
33579;SDS011;19909;43.644;-79.438;2023-07-13T11:44:28;5.32;;;4.82;;
33579;SDS011;19909;43.644;-79.438;2023-07-13T11:46:57;5.00;;;4.50;;
33579;SDS011;19909;43.644;-79.438;2023-07-13T11:49:30;7.90;;;4.80;;
33579;SDS011;19909;43.644;-79.438;2023-07-13T11:51:57;5.13;;;4.57;;
33579;SDS011;19909;43.644;-79.438;2023-07-13T11:54:26;5.05;;;4.35;;
33579;SDS011;19909;43.644;-79.438;2023-07-13T11:56:58;4.90;;;4.25;;
33579;SDS011;19909;43.644;-79.438;2023-07-13T11:59:29;6.00;;;4.43;;
33579;SDS011;19909;43.644;-79.438;2023-07-13T12:01:57;5.95;;;4.78;;
33579;SDS011;19909;43.644;-79.438;2023-07-13T12:04:27;5.25;;;4.30;;
33579;SDS011;19909;43.644;-79.438;2023-07-13T12:07:14;4.50;;;3.95;;
33579;SDS011;19909;43.644;-79.438;2023-07-13T12:09:42;4.80;;;4.05;;
33579;SDS011;19909;43.644;-79.438;2023-07-13T12:12:17;4.50;;;4.10;;
33579;SDS011;19909;43.644;-79.438;2023-07-13T12:14:44;5.53;;;3.92;;
33579;SDS011;19909;43.644;-79.438;2023-07-13T12:17:15;6.45;;;4.93;;
33579;SDS011;19909;43.644;-79.438;2023-07-13T12:19:44;8.18;;;5.70;;
33579;SDS011;19909;43.644;-79.438;2023-07-13T12:22:12;5.68;;;4.85;;
33579;SDS011;19909;43.644;-79.438;2023-07-13T12:24:42;6.97;;;4.70;;
33579;SDS011;19909;43.644;-79.438;2023-07-13T12:27:20;6.82;;;4.25;;
33579;SDS011;19909;43.644;-79.438;2023-07-13T12:29:58;7.05;;;5.13;;
33579;SDS011;19909;43.644;-79.438;2023-07-13T12:32:25;6.05;;;4.65;;
33579;SDS011;19909;43.644;-79.438;2023-07-13T12:34:53;4.97;;;4.03;;
33579;SDS011;19909;43.644;-79.438;2023-07-13T12:37:22;9.93;;;4.95;;
33579;SDS011;19909;43.644;-79.438;2023-07-13T12:39:49;5.45;;;4.53;;
33579;SDS011;19909;43.644;-79.438;2023-07-13T12:45:05;5.22;;;4.30;;
33579;SDS011;19909;43.644;-79.438;2023-07-13T12:47:40;5.78;;;5.15;;
33579;SDS011;19909;43.644;-79.438;2023-07-13T12:50:12;5.82;;;4.93;;
33579;SDS011;19909;43.644;-79.438;2023-07-13T12:52:42;5.90;;;5.07;;
33579;SDS011;19909;43.644;-79.438;2023-07-13T12:55:13;5.85;;;4.82;;
33579;SDS011;19909;43.644;-79.438;2023-07-13T12:58:02;6.65;;;6.05;;
33579;SDS011;19909;43.644;-79.438;2023-07-13T13:00:34;8.88;;;5.00;;
33579;SDS011;19909;43.644;-79.438;2023-07-13T13:08:32;5.07;;;4.53;;
33579;SDS011;19909;43.644;-79.438;2023-07-13T13:11:01;6.03;;;4.55;;
33579;SDS011;19909;43.644;-79.438;2023-07-13T13:13:27;4.57;;;3.95;;
33579;SDS011;19909;43.644;-79.438;2023-07-13T13:15:54;6.00;;;3.90;;
33579;SDS011;19909;43.644;-79.438;2023-07-13T13:18:21;4.32;;;3.60;;
33579;SDS011;19909;43.644;-79.438;2023-07-13T13:20:51;5.15;;;2.95;;
33579;SDS011;19909;43.644;-79.438;2023-07-13T13:23:18;5.82;;;2.60;;
33579;SDS011;19909;43.644;-79.438;2023-07-13T13:25:48;4.55;;;2.80;;
33579;SDS011;19909;43.644;-79.438;2023-07-13T13:28:16;4.13;;;2.67;;
33579;SDS011;19909;43.644;-79.438;2023-07-13T13:30:45;2.53;;;2.30;;
33579;SDS011;19909;43.644;-79.438;2023-07-13T13:33:13;3.83;;;2.10;;
33579;SDS011;19909;43.644;-79.438;2023-07-13T13:35:43;6.22;;;2.42;;
33579;SDS011;19909;43.644;-79.438;2023-07-13T13:38:30;3.72;;;1.95;;
33579;SDS011;19909;43.644;-79.438;2023-07-13T13:40:55;3.53;;;1.80;;
33579;SDS011;19909;43.644;-79.438;2023-07-13T13:43:22;5.88;;;2.08;;
33579;SDS011;19909;43.644;-79.438;2023-07-13T13:45:53;2.03;;;1.80;;
33579;SDS011;19909;43.644;-79.438;2023-07-13T13:48:29;4.13;;;1.88;;
33579;SDS011;19909;43.644;-79.438;2023-07-13T13:50:58;3.95;;;2.53;;
33579;SDS011;19909;43.644;-79.438;2023-07-13T13:53:26;4.45;;;1.63;;
33579;SDS011;19909;43.644;-79.438;2023-07-13T13:55:53;2.47;;;1.52;;
33579;SDS011;19909;43.644;-79.438;2023-07-13T13:58:19;2.35;;;1.63;;
33579;SDS011;19909;43.644;-79.438;2023-07-13T14:00:46;3.25;;;1.88;;
33579;SDS011;19909;43.644;-79.438;2023-07-13T14:03:14;3.63;;;1.80;;
33579;SDS011;19909;43.644;-79.438;2023-07-13T14:05:45;1.95;;;1.60;;
33579;SDS011;19909;43.644;-79.438;2023-07-13T14:08:16;3.25;;;1.40;;
33579;SDS011;19909;43.644;-79.438;2023-07-13T14:10:47;3.17;;;1.13;;
33579;SDS011;19909;43.644;-79.438;2023-07-13T14:15:52;3.65;;;1.25;;
33579;SDS011;19909;43.644;-79.438;2023-07-13T14:18:18;3.13;;;1.25;;
33579;SDS011;19909;43.644;-79.438;2023-07-13T14:20:45;1.83;;;1.00;;
33579;SDS011;19909;43.644;-79.438;2023-07-13T14:23:13;1.80;;;1.20;;
33579;SDS011;19909;43.644;-79.438;2023-07-13T14:25:40;2.25;;;1.20;;
33579;SDS011;19909;43.644;-79.438;2023-07-13T14:28:16;1.65;;;1.10;;
33579;SDS011;19909;43.644;-79.438;2023-07-13T14:30:47;2.25;;;1.27;;
33579;SDS011;19909;43.644;-79.438;2023-07-13T14:33:14;4.45;;;1.35;;
33579;SDS011;19909;43.644;-79.438;2023-07-13T14:35:40;1.67;;;1.20;;
33579;SDS011;19909;43.644;-79.438;2023-07-13T14:38:11;2.03;;;0.80;;
33579;SDS011;19909;43.644;-79.438;2023-07-13T14:40:41;2.92;;;1.00;;
33579;SDS011;19909;43.644;-79.438;2023-07-13T14:43:10;4.30;;;1.10;;
33579;SDS011;19909;43.644;-79.438;2023-07-13T14:45:41;4.00;;;1.23;;
33579;SDS011;19909;43.644;-79.438;2023-07-13T14:48:16;2.67;;;0.80;;
33579;SDS011;19909;43.644;-79.438;2023-07-13T14:50:45;2.40;;;1.02;;
33579;SDS011;19909;43.644;-79.438;2023-07-13T14:53:11;1.30;;;0.75;;
33579;SDS011;19909;43.644;-79.438;2023-07-13T14:55:39;3.25;;;0.68;;
33579;SDS011;19909;43.644;-79.438;2023-07-13T14:58:05;1.38;;;0.90;;
33579;SDS011;19909;43.644;-79.438;2023-07-13T15:00:32;1.33;;;0.80;;
33579;SDS011;19909;43.644;-79.438;2023-07-13T15:02:59;1.63;;;1.52;;
33579;SDS011;19909;43.644;-79.438;2023-07-13T15:05:27;2.33;;;1.70;;
33579;SDS011;19909;43.644;-79.438;2023-07-13T15:07:56;2.55;;;1.75;;
33579;SDS011;19909;43.644;-79.438;2023-07-13T15:10:26;1.80;;;1.50;;
33579;SDS011;19909;43.644;-79.438;2023-07-13T15:12:59;2.58;;;1.88;;
33579;SDS011;19909;43.644;-79.438;2023-07-13T15:15:27;4.75;;;2.03;;
33579;SDS011;19909;43.644;-79.438;2023-07-13T15:17:56;7.15;;;2.30;;
33579;SDS011;19909;43.644;-79.438;2023-07-13T15:20:26;5.22;;;2.08;;